6B9 weather

Skaneateles Aero Drome Airport
Skaneateles, New York, United States

Public forecast

Using degrees Fahrenheit for public forecast. Weather courtesy of forecast.io.

Closest aviation weather report (METAR) to Skaneateles Aero Drome Airport

Closest report is Syracuse Hancock International Airport, 18.9 nm (34.9 km) NE. Retrieved 2019/11/22 20:54 UTC (57 minutes ago):

KSYR 222054Z 28016G25KT 6SM -SN BKN033 OVC040 02/M02 A2986 RMK AO2 PK WND 30028/2021 RAE11 SLP110 P0000 60000 T00221022 53026

Closest aviation forecast (TAF) to Skaneateles Aero Drome Airport

Closest forecast is Syracuse Hancock International Airport, 18.9 nm (34.9 km) NE. Retrieved 2019/11/22 18:42 UTC (3 hours ago):

TAF KSYR 221740Z 2218/2318 28020G30KT 5SM -SHSNRA BR BKN025 FM222300 28018G25KT P6SM BKN035 FM230800 27008KT P6SM BKN110 FM231100 24006KT P6SM SCT120